Huvudsida
METAR-TAF:

METAR-TAF

Flygplatser :

Trapani-Birgi flygplats

Trapani, Italien

latitud: 37-55N, longitud: 012-30E, höjd: 7 m

Aktuellt väderrapport

Denna rapport gjordes för 1 timme och 12 minuter sedan, klockan 12:55 UTC
Vind 16 kt från nord
Temperatur 31°C
Fuktighet 75%
Tryck 1014 hPa
Sikt 10 km eller mer
Inga moln under 1 500 m eller inga cumulonimbus

METAR: LICT 241255Z 35016KT CAVOK 31/26 Q1014 RMK SKC VIS MIN 9999 WIND THR13 /////KT BLU

Tid: 16:07 (14:07 UTC)

Väderprognos

Denna rapport gjordes för 3 timmar och 7 minuter sedan, klockan 11:00 UTC
Prognos gäller från 24 kl. 12 UTC till 24 kl. 21 UTC
Vind 14 kt från nord
Sikt 10 km eller mer
Inga moln under 1 500 m eller inga cumulonimbus

TAF: LICT 241100Z 2412/2421 35014KT CAVOK

Aktuella väderrapporter och prognoser från 4000 flygplatser (METAR- och TAF-rapporter).

De tillgängliga stationerna syns som gula och röda prickar på kartan.

För musen över prickarna för att se namnen på stationerna.

Klicka sedan för att få väderrapporter och prognoser.

För att ändra kartan: Klicka på de gröna knapparna med ett svart kors på för att zooma in; den gröna knappen med ett streck på för att zooma ut; eller på de gröna pilarna för angränsande kartor.


METAR-TAF: